Flight Track Log - Related Links

Times and Time Zones

All times are in EDT time to prevent confusion due to time zone crossing. See the FLG3872 flight status page for this flight to view local times or setup timezone preferences in your user account.

Time Position Orientation Groundspeed Altitude Reporting Facility
EDT Latitude Longitude Course Direction KTS MPH feet Rate Location/Type
Thu 08:17:36 PM 42.1953 -83.3636 208° Southwest 169 194 1,500  Level Cleveland Center
Thu 08:18:37 PM 42.1933 -83.4419 268° West 224 258 3,400 1,230 Climbing Cleveland Center
Thu 08:19:38 PM 42.2017 -83.5264 278° West 251 289 4,000 453 Climbing Cleveland Center
Thu 08:20:00 PM 42.0555 -83.5941 211° Southwest  Level Estimated
Thu 08:21:00 PM 41.9764 -83.5880 177° South  Level FlightAware Approximate
Thu 08:21:00 PM 42.1123 -83.6517 217° Southwest  Level Estimated
Thu 08:22:00 PM 41.9264 -83.6706 217° Southwest  Level Estimated
Thu 08:23:00 PM 41.8763 -83.7531 208° Southwest  Level Estimated
Thu 08:28:00 PM 41.6523 -84.2878 208° Southwest  Level Estimated
Thu 08:29:00 PM 41.5863 -84.3780 210° Southwest  Level Estimated
Thu 08:30:00 PM 41.5039 -84.3167 151° Southeast  Level FlightAware Approximate
Thu 08:31:00 PM 41.4455 -84.4155 258° West  Level Estimated
Thu 08:32:00 PM 41.3870 -84.5142 253° West  Level Estimated
Thu 08:33:00 PM 41.2961 -84.4808 165° South  Level FlightAware Approximate
Thu 08:33:11 PM 41.4147 -84.6522 255° West 344 396 10,000  Level Chicago Center
Thu 08:34:00 PM 41.2485 -84.5891 252° West  Level Estimated
Thu 08:34:13 PM 41.3575 -84.7586 234° Southwest 349 402 10,000  Level Chicago Center
Thu 08:35:00 PM 41.2007 -84.6972 256° West  Level Estimated
Thu 08:35:15 PM 41.2889 -84.8828 234° Southwest 347 399 10,000  Level Chicago Center
Thu 08:36:00 PM 41.1528 -84.8052 248° West  Level Estimated
Thu 08:36:17 PM 41.2431 -84.9706 235° Southwest 296 341 7,900  Level Chicago Center
Thu 08:37:00 PM 41.0668 -84.8566 204° Southwest  Level FlightAware Approximate
Thu 08:37:19 PM 41.1997 -85.0569 236° Southwest 287 330 5,500  Level Chicago Center
Thu 08:38:00 PM 41.0307 -84.9466 255° West  Level FlightAware Approximate
Thu 08:38:21 PM 41.1553 -85.1375 234° Southwest 279 321 3,200  Level Chicago Center
Thu 08:39:23 PM 41.1133 -85.1994 228° Southwest 253 291 2,900 -288 Descending Chicago Center
Thu 08:40:26 PM 41.0806 -85.2369 221° Southwest 195 224 2,600 -286 Descending Chicago Center

Login

Don't have an account? Register now (free) for customized features, flight alerts, and more!